Time;durP1;ratioP1;P1;durP2;ratioP2;P2;SDS_P1;SDS_P2;PMS_P1;PMS_P2;Temp;Humidity;BMP_temperature;BMP_pressure;BME280_temperature;BME280_humidity;BME280_pressure;Samples;Min_cycle;Max_cycle;Signal;HPM_P1;HPM_P2
2023/02/21 02:13:55;;;;;;;4.60;4.20;;;;;;;;;;5035151;28;20198;-78
2023/02/21 02:16:33;;;;;;;5.20;4.70;;;;;;;;;;5035261;28;20226;-79
2023/02/21 02:19:51;;;;;;;5.15;4.65;;;;;;;;;;5034404;28;20224;-80
2023/02/21 02:22:57;;;;;;;4.68;4.20;;;;;;;;;;5024884;28;20297;-79
2023/02/21 02:26:09;;;;;;;4.22;3.83;;;;;;;;;;5034713;28;20264;-80
2023/02/21 02:28:59;;;;;;;4.68;4.28;;;;;;;;;;5018948;28;20202;-79
2023/02/21 02:31:45;;;;;;;4.63;4.13;;;;;;;;;;5035376;28;20208;-79
2023/02/21 02:34:49;;;;;;;5.93;4.72;;;;;;;;;;5035062;28;20198;-79
2023/02/21 02:37:22;;;;;;;3.42;3.13;;;;;;;;;;5034108;28;20222;-79
2023/02/21 02:39:56;;;;;;;4.90;4.50;;;;;;;;;;5034731;28;20651;-79
2023/02/21 02:42:47;;;;;;;5.32;4.85;;;;;;;;;;5035143;28;20204;-80
2023/02/21 02:45:23;;;;;;;5.45;4.20;;;;;;;;;;5034827;28;20210;-79
2023/02/21 02:47:57;;;;;;;4.13;3.72;;;;;;;;;;5037620;28;20699;-79
2023/02/21 02:50:27;;;;;;;3.92;3.63;;;;;;;;;;5036864;28;20205;-79
2023/02/21 02:53:00;;;;;;;3.95;3.60;;;;;;;;;;5037128;28;20210;-79
2023/02/21 02:55:39;;;;;;;4.40;4.00;;;;;;;;;;5037511;28;20209;-79
2023/02/21 02:58:09;;;;;;;5.25;4.60;;;;;;;;;;5036522;28;20698;-79
2023/02/21 03:00:39;;;;;;;5.07;4.10;;;;;;;;;;5038490;28;20198;-80
2023/02/21 03:03:43;;;;;;;3.50;3.20;;;;;;;;;;5038452;28;20202;-80
2023/02/21 03:06:23;;;;;;;5.00;4.45;;;;;;;;;;5029812;28;20221;-81
2023/02/21 03:08:57;;;;;;;3.70;3.30;;;;;;;;;;5033898;28;20206;-80
2023/02/21 03:11:26;;;;;;;4.68;4.22;;;;;;;;;;5034870;28;20208;-81
2023/02/21 03:13:57;;;;;;;5.60;5.10;;;;;;;;;;5035006;28;20407;-80
2023/02/21 03:16:28;;;;;;;5.35;4.85;;;;;;;;;;5035018;28;20230;-80
2023/02/21 03:19:00;;;;;;;5.45;5.05;;;;;;;;;;5034626;28;20202;-80
2023/02/21 03:21:30;;;;;;;5.22;4.60;;;;;;;;;;5034922;28;20210;-80
2023/02/21 03:24:00;;;;;;;5.25;4.38;;;;;;;;;;5037453;28;20214;-81
2023/02/21 03:26:29;;;;;;;5.22;4.72;;;;;;;;;;5045303;28;20229;-80
2023/02/21 03:28:57;;;;;;;5.25;4.75;;;;;;;;;;5039593;28;20202;-80
2023/02/21 03:31:29;;;;;;;4.03;3.65;;;;;;;;;;5034893;28;20305;-81
2023/02/21 03:33:57;;;;;;;4.18;3.83;;;;;;;;;;5034626;28;20667;-81
2023/02/21 03:36:24;;;;;;;6.10;5.50;;;;;;;;;;5035108;28;20222;-80
2023/02/21 03:38:53;;;;;;;6.20;5.60;;;;;;;;;;5033833;28;20301;-80
2023/02/21 03:41:21;;;;;;;5.75;4.88;;;;;;;;;;5033798;28;20206;-80
2023/02/21 03:43:48;;;;;;;5.25;4.78;;;;;;;;;;5034331;28;20576;-80
2023/02/21 03:46:15;;;;;;;4.80;4.05;;;;;;;;;;5033513;28;20226;-81
2023/02/21 03:48:43;;;;;;;6.28;5.68;;;;;;;;;;5033379;28;20198;-81
2023/02/21 03:51:11;;;;;;;6.63;5.82;;;;;;;;;;5034233;28;20206;-80
2023/02/21 03:53:38;;;;;;;5.97;5.38;;;;;;;;;;5033848;28;20316;-80
2023/02/21 03:56:08;;;;;;;6.13;5.55;;;;;;;;;;5033414;28;20222;-81
2023/02/21 03:58:35;;;;;;;5.13;4.53;;;;;;;;;;5033004;28;20222;-81
2023/02/21 04:01:03;;;;;;;4.00;3.70;;;;;;;;;;5033472;28;20218;-80
2023/02/21 04:03:31;;;;;;;6.13;5.10;;;;;;;;;;5033725;28;20210;-80
2023/02/21 04:05:58;;;;;;;7.15;5.97;;;;;;;;;;5033401;28;20244;-80
2023/02/21 04:08:26;;;;;;;5.85;4.93;;;;;;;;;;5031597;28;20202;-81
2023/02/21 04:10:53;;;;;;;9.45;6.63;;;;;;;;;;5032859;28;20328;-80
2023/02/21 04:13:23;;;;;;;6.35;5.57;;;;;;;;;;5033410;28;20689;-80
2023/02/21 04:15:50;;;;;;;8.77;6.25;;;;;;;;;;5033468;28;20774;-80
2023/02/21 04:18:18;;;;;;;4.97;4.53;;;;;;;;;;5032476;28;20233;-81
2023/02/21 04:20:46;;;;;;;7.60;6.25;;;;;;;;;;5033166;28;20685;-79
2023/02/21 04:23:16;;;;;;;5.22;4.72;;;;;;;;;;5033473;28;20213;-80
2023/02/21 04:25:43;;;;;;;5.60;5.10;;;;;;;;;;5033748;28;20202;-80
2023/02/21 04:28:11;;;;;;;5.40;4.07;;;;;;;;;;5032283;28;20663;-80
2023/02/21 04:30:40;;;;;;;5.28;4.78;;;;;;;;;;5032687;28;20208;-81
2023/02/21 04:33:07;;;;;;;7.43;6.45;;;;;;;;;;5031081;28;20246;-80
2023/02/21 04:35:35;;;;;;;7.68;6.30;;;;;;;;;;5033002;28;20289;-81
2023/02/21 04:38:02;;;;;;;6.20;5.65;;;;;;;;;;5031704;28;20260;-81
2023/02/21 04:40:29;;;;;;;5.78;5.18;;;;;;;;;;5032493;28;20206;-80
2023/02/21 04:42:57;;;;;;;6.95;6.25;;;;;;;;;;5032666;28;20220;-80
2023/02/21 04:45:24;;;;;;;7.57;6.78;;;;;;;;;;5032443;28;20202;-80
2023/02/21 04:47:53;;;;;;;5.22;4.70;;;;;;;;;;5033020;28;20314;-80
2023/02/21 04:50:20;;;;;;;6.28;5.65;;;;;;;;;;5031957;28;20297;-80
2023/02/21 04:52:49;;;;;;;5.15;4.65;;;;;;;;;;5032479;28;20684;-79
2023/02/21 04:55:16;;;;;;;5.53;4.97;;;;;;;;;;5033046;28;20206;-80
2023/02/21 04:57:44;;;;;;;4.43;4.00;;;;;;;;;;5033658;28;20585;-79
2023/02/21 05:00:13;;;;;;;6.85;6.00;;;;;;;;;;5032607;28;20293;-80
2023/02/21 05:02:43;;;;;;;6.10;5.50;;;;;;;;;;5034377;28;20202;-80
2023/02/21 05:05:12;;;;;;;4.55;4.15;;;;;;;;;;5033382;28;20202;-80
2023/02/21 05:07:42;;;;;;;3.78;3.42;;;;;;;;;;5033039;28;20316;-80
2023/02/21 05:10:10;;;;;;;4.82;4.43;;;;;;;;;;5032774;28;20293;-81
2023/02/21 05:12:38;;;;;;;7.30;6.55;;;;;;;;;;5032835;28;20237;-80
2023/02/21 05:15:08;;;;;;;5.40;4.90;;;;;;;;;;5033128;28;20214;-81
2023/02/21 05:17:35;;;;;;;6.57;5.88;;;;;;;;;;5032640;28;20617;-81
2023/02/21 05:20:03;;;;;;;6.22;5.28;;;;;;;;;;5032222;28;20241;-80
2023/02/21 05:22:33;;;;;;;4.07;3.67;;;;;;;;;;5038797;28;20210;-81
2023/02/21 05:25:00;;;;;;;5.72;5.10;;;;;;;;;;5038905;28;20209;-80
2023/02/21 05:27:28;;;;;;;5.13;4.57;;;;;;;;;;5038737;28;20309;-80
2023/02/21 05:29:55;;;;;;;7.22;5.68;;;;;;;;;;5037660;28;20575;-80
2023/02/21 05:32:23;;;;;;;5.30;4.80;;;;;;;;;;5039003;28;20202;-80
2023/02/21 05:34:50;;;;;;;4.05;3.63;;;;;;;;;;5038502;28;20292;-81
2023/02/21 05:37:19;;;;;;;4.28;3.97;;;;;;;;;;5038729;28;20253;-80
2023/02/21 05:39:48;;;;;;;4.72;4.13;;;;;;;;;;5038076;28;20202;-81
2023/02/21 05:42:16;;;;;;;4.07;3.63;;;;;;;;;;5038965;28;20224;-80
2023/02/21 05:44:45;;;;;;;4.88;4.47;;;;;;;;;;5038351;28;20206;-80
2023/02/21 05:47:12;;;;;;;6.75;6.07;;;;;;;;;;5038427;28;20221;-80
2023/02/21 05:49:40;;;;;;;6.93;6.22;;;;;;;;;;5037927;28;20202;-80
2023/02/21 05:52:10;;;;;;;5.20;4.70;;;;;;;;;;5038675;28;20205;-81
2023/02/21 05:54:37;;;;;;;6.30;5.70;;;;;;;;;;5038749;28;20209;-80
2023/02/21 05:57:06;;;;;;;5.80;5.22;;;;;;;;;;5037858;28;20320;-81
2023/02/21 05:59:33;;;;;;;6.25;5.65;;;;;;;;;;5037193;28;20222;-80
2023/02/21 06:02:01;;;;;;;5.07;4.57;;;;;;;;;;5038021;28;20566;-80
2023/02/21 06:04:28;;;;;;;7.32;5.38;;;;;;;;;;5038569;28;20583;-81
2023/02/21 06:06:56;;;;;;;6.90;6.07;;;;;;;;;;5038079;28;20226;-80
2023/02/21 06:09:23;;;;;;;5.82;4.68;;;;;;;;;;5038009;28;20198;-80
2023/02/21 06:11:51;;;;;;;6.40;5.70;;;;;;;;;;5038428;28;20206;-80
2023/02/21 06:14:21;;;;;;;5.80;5.20;;;;;;;;;;5039068;28;20212;-80
2023/02/21 06:16:49;;;;;;;5.45;4.95;;;;;;;;;;5038906;28;20229;-80
2023/02/21 06:19:17;;;;;;;7.28;6.15;;;;;;;;;;5037763;28;20253;-80
2023/02/21 06:21:45;;;;;;;6.93;6.10;;;;;;;;;;5038447;28;20215;-82
2023/02/21 06:24:13;;;;;;;6.38;5.78;;;;;;;;;;5038256;28;20288;-80
2023/02/21 06:26:41;;;;;;;6.13;5.53;;;;;;;;;;5038470;28;20226;-80
2023/02/21 06:29:09;;;;;;;5.35;4.85;;;;;;;;;;5038444;28;20204;-80
2023/02/21 06:31:38;;;;;;;6.53;5.35;;;;;;;;;;5037857;28;20224;-81
2023/02/21 06:34:07;;;;;;;4.55;4.18;;;;;;;;;;5035196;28;20202;-81
2023/02/21 06:36:35;;;;;;;5.80;5.20;;;;;;;;;;5035359;28;20317;-80
2023/02/21 06:39:03;;;;;;;5.40;4.75;;;;;;;;;;5035063;28;20385;-80
2023/02/21 06:41:31;;;;;;;6.03;5.05;;;;;;;;;;5035502;28;20206;-80
2023/02/21 06:44:00;;;;;;;5.38;4.88;;;;;;;;;;5035818;28;20206;-80
2023/02/21 06:46:29;;;;;;;4.05;3.65;;;;;;;;;;5035377;28;20309;-80
2023/02/21 06:48:58;;;;;;;8.05;6.45;;;;;;;;;;5044425;28;20206;-80
2023/02/21 06:51:28;;;;;;;7.47;5.90;;;;;;;;;;5044464;28;20262;-80
2023/02/21 06:53:56;;;;;;;5.90;5.30;;;;;;;;;;5036555;28;20254;-80
2023/02/21 06:56:24;;;;;;;5.95;5.25;;;;;;;;;;5035365;28;20653;-81
2023/02/21 06:58:51;;;;;;;5.97;5.30;;;;;;;;;;5034233;28;20778;-80
2023/02/21 07:01:19;;;;;;;7.55;5.57;;;;;;;;;;5034498;28;20301;-81
2023/02/21 07:03:46;;;;;;;5.15;4.65;;;;;;;;;;5034707;28;20584;-80
2023/02/21 07:06:15;;;;;;;6.30;5.55;;;;;;;;;;5034327;28;20230;-80
2023/02/21 07:08:43;;;;;;;5.40;4.90;;;;;;;;;;5035015;28;20202;-80
2023/02/21 07:11:11;;;;;;;6.05;5.30;;;;;;;;;;5035372;28;20730;-80
2023/02/21 07:13:38;;;;;;;5.60;5.07;;;;;;;;;;5033259;28;20201;-81
2023/02/21 07:16:07;;;;;;;5.53;4.85;;;;;;;;;;5035505;28;20233;-81
2023/02/21 07:18:35;;;;;;;7.30;5.85;;;;;;;;;;5033552;28;20208;-80
2023/02/21 07:21:02;;;;;;;6.70;6.03;;;;;;;;;;5034886;28;20198;-79
2023/02/21 07:23:31;;;;;;;4.70;4.30;;;;;;;;;;5034967;28;20278;-80
2023/02/21 07:25:58;;;;;;;6.68;6.03;;;;;;;;;;5034239;28;20617;-80
2023/02/21 07:28:26;;;;;;;5.28;4.78;;;;;;;;;;5034199;28;20206;-81
2023/02/21 07:30:53;;;;;;;8.27;6.10;;;;;;;;;;5034160;28;20397;-80
2023/02/21 07:33:21;;;;;;;5.15;4.63;;;;;;;;;;5034263;28;20295;-80
2023/02/21 07:35:48;;;;;;;6.50;5.85;;;;;;;;;;5033584;28;20924;-80
2023/02/21 07:38:21;;;;;;;8.75;7.00;;;;;;;;;;5033372;28;20674;-80
2023/02/21 07:40:50;;;;;;;8.57;6.00;;;;;;;;;;5033474;28;20230;-80
2023/02/21 07:43:18;;;;;;;6.80;5.35;;;;;;;;;;5033876;28;20632;-81
2023/02/21 07:45:45;;;;;;;6.20;5.55;;;;;;;;;;5033252;28;20214;-81
2023/02/21 07:48:13;;;;;;;5.95;5.35;;;;;;;;;;5033274;28;20206;-81
2023/02/21 07:50:41;;;;;;;6.63;5.55;;;;;;;;;;5034377;28;20225;-80
2023/02/21 07:53:09;;;;;;;7.13;6.00;;;;;;;;;;5033673;28;20217;-81
2023/02/21 07:55:36;;;;;;;4.68;4.28;;;;;;;;;;5033560;28;20585;-80
2023/02/21 07:58:05;;;;;;;7.65;5.70;;;;;;;;;;5032289;28;20977;-79
2023/02/21 08:00:33;;;;;;;4.68;4.07;;;;;;;;;;5033281;28;21109;-79
2023/02/21 08:03:01;;;;;;;6.57;5.68;;;;;;;;;;5033452;28;20696;-79
2023/02/21 08:05:28;;;;;;;6.97;6.28;;;;;;;;;;5034391;28;20293;-80
2023/02/21 08:07:56;;;;;;;4.68;4.20;;;;;;;;;;5033853;28;20273;-80
2023/02/21 08:10:25;;;;;;;7.03;6.32;;;;;;;;;;5032734;28;20204;-81
2023/02/21 08:12:53;;;;;;;5.78;5.07;;;;;;;;;;5032310;28;20198;-79
2023/02/21 08:15:22;;;;;;;7.35;5.70;;;;;;;;;;5032666;28;20198;-79
2023/02/21 08:17:50;;;;;;;6.22;4.57;;;;;;;;;;5032801;28;20223;-80
2023/02/21 08:20:19;;;;;;;6.05;4.65;;;;;;;;;;5032044;28;20254;-80
2023/02/21 08:22:46;;;;;;;4.35;3.95;;;;;;;;;;5032756;28;20201;-80
2023/02/21 08:25:16;;;;;;;3.92;3.53;;;;;;;;;;5032891;28;20207;-80
2023/02/21 08:27:45;;;;;;;4.38;3.92;;;;;;;;;;5032434;28;20222;-79
2023/02/21 08:30:15;;;;;;;4.35;4.00;;;;;;;;;;5032764;28;20229;-79
2023/02/21 08:32:47;;;;;;;4.05;3.45;;;;;;;;;;5032663;28;20674;-80
2023/02/21 08:35:14;;;;;;;5.80;5.30;;;;;;;;;;5032700;28;20202;-80
2023/02/21 08:37:45;;;;;;;9.15;8.07;;;;;;;;;;5032512;28;20226;-80
2023/02/21 08:40:13;;;;;;;12.20;9.60;;;;;;;;;;5031834;28;20230;-79
2023/02/21 08:42:41;;;;;;;11.73;9.98;;;;;;;;;;5032862;28;20662;-80
2023/02/21 08:45:11;;;;;;;9.63;8.63;;;;;;;;;;5032424;28;20210;-79
2023/02/21 08:47:38;;;;;;;14.55;11.60;;;;;;;;;;5032056;28;20234;-79
2023/02/21 08:50:08;;;;;;;10.02;8.43;;;;;;;;;;5030924;28;20194;-79
2023/02/21 08:52:35;;;;;;;10.05;8.68;;;;;;;;;;5032298;28;20206;-79
2023/02/21 08:55:03;;;;;;;10.75;9.55;;;;;;;;;;5031258;28;20198;-80
2023/02/21 08:57:30;;;;;;;10.40;8.80;;;;;;;;;;5031507;28;20221;-81
2023/02/21 08:59:58;;;;;;;9.60;7.78;;;;;;;;;;5030880;28;20222;-79
2023/02/21 09:02:27;;;;;;;6.75;5.97;;;;;;;;;;5031801;28;20202;-80
2023/02/21 09:04:54;;;;;;;9.10;6.80;;;;;;;;;;5032942;28;20292;-79
2023/02/21 09:07:24;;;;;;;8.13;7.22;;;;;;;;;;5032427;28;20312;-81
2023/02/21 09:09:51;;;;;;;11.70;9.25;;;;;;;;;;5031413;28;20202;-80
2023/02/21 09:12:18;;;;;;;9.25;8.23;;;;;;;;;;5031382;28;20685;-79
2023/02/21 09:14:46;;;;;;;10.02;8.63;;;;;;;;;;5031737;28;20206;-81
2023/02/21 09:17:15;;;;;;;9.05;8.15;;;;;;;;;;5036174;28;20713;-79
2023/02/21 09:19:43;;;;;;;11.02;8.82;;;;;;;;;;5050207;28;20284;-79
2023/02/21 09:22:11;;;;;;;8.63;7.05;;;;;;;;;;5050632;28;20263;-81
2023/02/21 09:24:41;;;;;;;10.75;8.00;;;;;;;;;;5032299;28;20207;-81
2023/02/21 09:27:08;;;;;;;8.52;7.03;;;;;;;;;;5032627;28;20236;-80
2023/02/21 09:29:37;;;;;;;7.45;6.65;;;;;;;;;;5032245;28;20198;-82
2023/02/21 09:32:05;;;;;;;13.40;10.23;;;;;;;;;;5033051;28;20281;-82
2023/02/21 09:34:32;;;;;;;10.48;9.38;;;;;;;;;;5032347;28;20202;-80
2023/02/21 09:37:00;;;;;;;13.25;10.38;;;;;;;;;;5031580;28;20605;-81
2023/02/21 09:39:27;;;;;;;12.95;11.35;;;;;;;;;;5030773;28;20202;-80
2023/02/21 09:41:57;;;;;;;10.43;9.30;;;;;;;;;;5031145;28;20264;-80
2023/02/21 09:44:28;;;;;;;9.38;8.43;;;;;;;;;;5032380;28;20729;-79
2023/02/21 09:46:58;;;;;;;10.75;8.45;;;;;;;;;;5030783;28;20757;-79
2023/02/21 09:49:30;;;;;;;9.27;8.27;;;;;;;;;;5030812;28;20213;-80
2023/02/21 09:51:58;;;;;;;9.55;7.88;;;;;;;;;;5031328;28;20206;-79
2023/02/21 09:54:28;;;;;;;7.53;6.63;;;;;;;;;;5011823;28;20210;-79
2023/02/21 09:56:59;;;;;;;7.43;6.25;;;;;;;;;;5011554;28;20242;-79
2023/02/21 09:59:27;;;;;;;8.90;7.55;;;;;;;;;;5010919;28;20209;-79
2023/02/21 10:02:09;;;;;;;8.85;7.40;;;;;;;;;;5011007;28;20227;-79
2023/02/21 10:04:55;;;;;;;6.57;5.88;;;;;;;;;;5011617;28;20668;-79
2023/02/21 10:07:28;;;;;;;11.88;9.45;;;;;;;;;;5012608;28;20234;-78
2023/02/21 10:10:02;;;;;;;9.23;7.82;;;;;;;;;;5014068;28;20199;-79
2023/02/21 10:12:34;;;;;;;10.40;9.02;;;;;;;;;;5020723;28;20590;-78
2023/02/21 10:15:24;;;;;;;9.95;8.52;;;;;;;;;;5021177;28;20206;-83
2023/02/21 10:17:59;;;;;;;11.18;7.57;;;;;;;;;;5015109;28;20227;-79
2023/02/21 10:20:32;;;;;;;7.32;5.90;;;;;;;;;;5014255;28;20202;-78
2023/02/21 10:23:02;;;;;;;8.70;7.72;;;;;;;;;;5027726;28;20212;-79
2023/02/21 10:25:32;;;;;;;7.82;6.53;;;;;;;;;;5045780;28;20205;-79
2023/02/21 10:28:01;;;;;;;9.48;8.48;;;;;;;;;;5049940;28;20194;-79
2023/02/21 10:30:35;;;;;;;9.48;7.88;;;;;;;;;;5054577;28;20208;-79
2023/02/21 10:33:05;;;;;;;10.10;8.52;;;;;;;;;;5055068;28;20209;-80
2023/02/21 10:35:33;;;;;;;10.80;9.35;;;;;;;;;;5054468;28;20233;-79
2023/02/21 10:38:02;;;;;;;11.82;9.80;;;;;;;;;;5053549;28;20201;-78
2023/02/21 10:40:34;;;;;;;11.35;8.65;;;;;;;;;;5054405;28;20208;-79
2023/02/21 10:43:11;;;;;;;10.32;8.38;;;;;;;;;;5054429;28;20214;-79
2023/02/21 10:45:43;;;;;;;10.15;8.32;;;;;;;;;;5053760;28;20201;-79
2023/02/21 10:48:12;;;;;;;9.15;8.05;;;;;;;;;;5053738;28;20573;-78
2023/02/21 10:50:49;;;;;;;6.47;5.85;;;;;;;;;;5054432;28;20215;-80
2023/02/21 10:53:29;;;;;;;5.65;5.03;;;;;;;;;;5043231;28;20232;-80
2023/02/21 10:56:14;;;;;;;7.03;5.95;;;;;;;;;;5034186;28;20222;-79
2023/02/21 10:58:46;;;;;;;6.82;5.70;;;;;;;;;;5033594;28;20205;-79
2023/02/21 11:01:17;;;;;;;7.13;6.13;;;;;;;;;;5048840;28;20232;-78
2023/02/21 11:03:47;;;;;;;6.53;5.93;;;;;;;;;;5053789;28;20204;-80
2023/02/21 11:06:27;;;;;;;6.78;5.63;;;;;;;;;;5054009;28;20232;-79
2023/02/21 11:08:55;;;;;;;5.38;4.88;;;;;;;;;;5053343;28;20211;-79
2023/02/21 11:11:35;;;;;;;4.38;3.97;;;;;;;;;;5053847;28;20649;-78
2023/02/21 11:14:22;;;;;;;6.57;4.90;;;;;;;;;;5054715;28;20205;-78
2023/02/21 11:17:24;;;;;;;4.53;4.10;;;;;;;;;;5054794;28;20221;-80
2023/02/21 11:19:55;;;;;;;6.82;4.35;;;;;;;;;;5053465;28;20205;-80
2023/02/21 11:22:26;;;;;;;3.25;2.55;;;;;;;;;;5051254;28;20736;-79
2023/02/21 11:25:00;;;;;;;4.00;3.25;;;;;;;;;;5035098;28;20667;-80
2023/02/21 11:27:31;;;;;;;3.25;3.05;;;;;;;;;;5034184;28;20222;-79
2023/02/21 11:30:01;;;;;;;3.47;3.20;;;;;;;;;;5032968;28;20298;-80
2023/02/21 11:32:33;;;;;;;2.97;2.75;;;;;;;;;;5034304;28;20203;-80
2023/02/21 11:35:15;;;;;;;3.72;2.60;;;;;;;;;;5033485;28;20202;-81
2023/02/21 11:37:53;;;;;;;2.22;2.08;;;;;;;;;;5033376;28;20226;-81
2023/02/21 11:40:41;;;;;;;3.63;3.33;;;;;;;;;;5033264;28;20198;-78
2023/02/21 11:43:21;;;;;;;3.28;2.97;;;;;;;;;;5033450;28;20233;-80
2023/02/21 11:46:20;;;;;;;3.92;3.63;;;;;;;;;;5031689;28;20206;-79
2023/02/21 11:48:57;;;;;;;4.95;3.20;;;;;;;;;;5019860;28;20212;-80
2023/02/21 11:51:34;;;;;;;3.13;2.80;;;;;;;;;;5033381;28;20198;-80
2023/02/21 11:54:03;;;;;;;3.15;2.85;;;;;;;;;;5033627;28;20210;-79
2023/02/21 11:56:57;;;;;;;1.92;1.83;;;;;;;;;;5033581;28;20248;-79
2023/02/21 11:59:36;;;;;;;2.67;2.25;;;;;;;;;;5022804;28;20210;-80
2023/02/21 12:02:47;;;;;;;3.58;3.05;;;;;;;;;;5033179;28;20226;-81
2023/02/21 12:05:37;;;;;;;3.80;3.42;;;;;;;;;;5033280;28;20698;-79
2023/02/21 12:08:26;;;;;;;2.60;2.40;;;;;;;;;;5032000;28;20625;-80
2023/02/21 12:11:00;;;;;;;3.00;2.70;;;;;;;;;;5032668;28;20202;-81
2023/02/21 12:13:36;;;;;;;2.80;2.42;;;;;;;;;;5033031;28;20293;-80
2023/02/21 12:16:10;;;;;;;3.45;3.15;;;;;;;;;;5032854;28;20617;-80
2023/02/21 12:18:58;;;;;;;3.60;3.30;;;;;;;;;;5032626;28;20562;-80
2023/02/21 12:21:57;;;;;;;3.20;2.90;;;;;;;;;;5032710;28;20208;-80
2023/02/21 12:24:40;;;;;;;3.67;2.53;;;;;;;;;;5032082;28;20221;-79
2023/02/21 12:27:13;;;;;;;3.78;3.42;;;;;;;;;;5032865;28;20260;-79
2023/02/21 12:30:19;;;;;;;2.97;2.55;;;;;;;;;;5031530;28;20592;-79
2023/02/21 12:32:54;;;;;;;4.00;3.70;;;;;;;;;;4985509;28;20198;-79
2023/02/21 12:36:01;;;;;;;3.05;2.83;;;;;;;;;;5032855;28;20205;-80
2023/02/21 12:38:34;;;;;;;2.33;2.20;;;;;;;;;;5031769;28;20210;-79
2023/02/21 12:41:10;;;;;;;2.45;2.22;;;;;;;;;;5031991;28;20216;-80
2023/02/21 12:43:52;;;;;;;3.95;3.00;;;;;;;;;;5032421;28;20228;-79
2023/02/21 12:46:25;;;;;;;3.10;2.88;;;;;;;;;;5032123;28;20230;-79
2023/02/21 12:48:59;;;;;;;2.97;2.78;;;;;;;;;;5031469;28;20593;-79
2023/02/21 12:51:32;;;;;;;2.38;2.17;;;;;;;;;;5032149;28;20297;-80
2023/02/21 12:54:05;;;;;;;3.33;3.03;;;;;;;;;;5032656;28;20206;-79
2023/02/21 12:56:37;;;;;;;3.50;3.20;;;;;;;;;;5032510;28;20226;-79
2023/02/21 12:59:11;;;;;;;2.47;2.28;;;;;;;;;;5031735;28;20301;-79
2023/02/21 13:01:44;;;;;;;3.45;2.80;;;;;;;;;;5031825;28;20210;-80
2023/02/21 13:04:23;;;;;;;2.25;2.15;;;;;;;;;;5032483;28;20293;-79
2023/02/21 13:06:56;;;;;;;2.80;2.60;;;;;;;;;;5031876;28;20214;-80
2023/02/21 13:09:32;;;;;;;2.75;2.55;;;;;;;;;;5031402;28;20202;-80
2023/02/21 13:12:07;;;;;;;3.53;3.22;;;;;;;;;;5031174;28;20202;-80
2023/02/21 13:14:43;;;;;;;2.70;2.50;;;;;;;;;;5031794;28;20686;-80
2023/02/21 13:17:12;;;;;;;2.22;2.03;;;;;;;;;;5032042;28;20358;-79
2023/02/21 13:19:45;;;;;;;3.83;3.40;;;;;;;;;;5031169;28;20224;-79
2023/02/21 13:26:12;;;;;;;2.25;2.05;;;;;;;;;;5031723;28;20228;-79
2023/02/21 13:28:41;;;;;;;1.73;1.63;;;;;;;;;;5031539;28;20655;-80
2023/02/21 13:31:19;;;;;;;2.20;2.00;;;;;;;;;;5035513;28;20206;-79
2023/02/21 13:33:51;;;;;;;1.85;1.55;;;;;;;;;;5043323;28;20229;-80
2023/02/21 13:36:27;;;;;;;1.83;1.73;;;;;;;;;;5037417;28;20226;-80
2023/02/21 13:39:04;;;;;;;1.40;1.30;;;;;;;;;;5032667;28;20592;-81
2023/02/21 13:41:37;;;;;;;2.33;2.15;;;;;;;;;;5033359;28;20332;-81
2023/02/21 13:44:09;;;;;;;1.60;1.50;;;;;;;;;;5034287;28;20257;-81
2023/02/21 13:47:10;;;;;;;1.83;1.73;;;;;;;;;;5033924;28;20232;-80
2023/02/21 13:49:54;;;;;;;3.47;3.28;;;;;;;;;;5035215;28;20198;-80
2023/02/21 13:52:51;;;;;;;3.58;3.28;;;;;;;;;;5030989;28;20301;-80
2023/02/21 13:55:30;;;;;;;3.33;2.50;;;;;;;;;;5016709;28;20203;-80
2023/02/21 13:58:44;;;;;;;3.25;2.95;;;;;;;;;;5016808;28;20713;-82
2023/02/21 14:01:48;;;;;;;2.83;2.38;;;;;;;;;;4971020;28;20207;-80
2023/02/21 14:05:04;;;;;;;2.67;2.47;;;;;;;;;;5016757;28;20732;-80
2023/02/21 14:07:57;;;;;;;2.80;2.60;;;;;;;;;;4999747;28;20227;-80
2023/02/21 14:10:33;;;;;;;3.10;2.80;;;;;;;;;;5016217;28;20195;-81
2023/02/21 14:13:04;;;;;;;2.80;2.58;;;;;;;;;;5016661;28;20209;-79
2023/02/21 14:15:49;;;;;;;3.28;2.97;;;;;;;;;;5030374;28;20220;-80
2023/02/21 14:18:22;;;;;;;3.80;3.50;;;;;;;;;;5034976;28;20293;-80
2023/02/21 14:20:52;;;;;;;2.83;2.47;;;;;;;;;;5037680;28;20207;-80
2023/02/21 14:23:22;;;;;;;2.33;2.17;;;;;;;;;;5036373;28;20225;-81
2023/02/21 14:26:00;;;;;;;2.47;2.28;;;;;;;;;;5036641;28;20587;-80
2023/02/21 14:28:50;;;;;;;2.83;2.63;;;;;;;;;;5034334;28;20633;-81
2023/02/21 14:31:52;;;;;;;1.75;1.65;;;;;;;;;;5033942;28;20212;-80
2023/02/21 14:34:32;;;;;;;3.45;2.90;;;;;;;;;;5034683;28;20198;-81
2023/02/21 14:37:04;;;;;;;2.35;2.15;;;;;;;;;;5034611;28;20218;-80
2023/02/21 14:39:36;;;;;;;1.77;1.67;;;;;;;;;;5033789;28;20202;-80
2023/02/21 14:42:42;;;;;;;2.40;2.15;;;;;;;;;;5034542;28;20213;-80
2023/02/21 14:45:41;;;;;;;2.25;1.92;;;;;;;;;;5035055;28;20216;-81
2023/02/21 14:48:43;;;;;;;1.63;1.52;;;;;;;;;;5034418;28;20210;-81
2023/02/21 14:51:43;;;;;;;2.28;2.08;;;;;;;;;;5034483;28;20208;-81
2023/02/21 14:55:10;;;;;;;2.00;1.90;;;;;;;;;;5034701;28;20213;-81
2023/02/21 14:58:22;;;;;;;2.40;2.20;;;;;;;;;;5012621;28;20223;-81
2023/02/21 15:01:02;;;;;;;2.20;2.00;;;;;;;;;;4992900;28;20207;-81
2023/02/21 15:03:34;;;;;;;3.00;2.70;;;;;;;;;;5034362;28;20228;-81
2023/02/21 15:06:06;;;;;;;2.70;2.50;;;;;;;;;;5035034;28;20223;-81
2023/02/21 15:08:42;;;;;;;3.40;3.10;;;;;;;;;;5033851;28;20225;-79
2023/02/21 15:11:24;;;;;;;3.92;3.63;;;;;;;;;;5036955;28;20205;-80
2023/02/21 15:14:21;;;;;;;4.13;3.75;;;;;;;;;;5037179;28;20186;-79
2023/02/21 15:16:52;;;;;;;2.80;2.60;;;;;;;;;;5034026;23;20776;-87
2023/02/21 15:19:27;;;;;;;3.00;2.35;;;;;;;;;;5073325;28;20197;-87
2023/02/21 15:22:20;;;;;;;3.70;3.42;;;;;;;;;;5073759;28;20217;-87
2023/02/21 15:25:24;;;;;;;3.10;2.67;;;;;;;;;;5054839;28;20225;-87
2023/02/21 15:28:26;;;;;;;2.95;2.70;;;;;;;;;;5054932;28;20607;-87
2023/02/21 15:31:04;;;;;;;3.10;2.80;;;;;;;;;;5054360;28;20205;-87
2023/02/21 15:33:34;;;;;;;2.97;2.67;;;;;;;;;;5054725;28;20225;-86
2023/02/21 15:36:07;;;;;;;3.28;3.00;;;;;;;;;;5054210;28;20287;-87
2023/02/21 15:38:40;;;;;;;3.55;3.20;;;;;;;;;;5054257;28;20222;-86
2023/02/21 15:41:13;;;;;;;2.80;2.60;;;;;;;;;;5054747;28;20174;-86
2023/02/21 15:43:46;;;;;;;1.92;1.83;;;;;;;;;;5069699;23;20249;-83
2023/02/21 15:46:18;;;;;;;2.45;2.25;;;;;;;;;;5037289;28;20233;-83
2023/02/21 15:48:46;;;;;;;3.95;3.55;;;;;;;;;;5035889;28;20210;-83
2023/02/21 15:51:16;;;;;;;3.50;3.20;;;;;;;;;;5037212;28;20294;-83
2023/02/21 15:53:43;;;;;;;2.67;2.47;;;;;;;;;;5030906;28;20234;-83
2023/02/21 15:56:23;;;;;;;3.05;2.85;;;;;;;;;;5017151;28;20230;-83
2023/02/21 15:59:17;;;;;;;3.30;3.00;;;;;;;;;;5017637;28;20210;-83
2023/02/21 16:01:45;;;;;;;4.80;3.22;;;;;;;;;;5016481;28;20241;-84
2023/02/21 16:04:21;;;;;;;3.65;3.30;;;;;;;;;;5014926;28;20234;-83
2023/02/21 16:06:54;;;;;;;3.95;3.60;;;;;;;;;;5014297;28;20206;-83
2023/02/21 16:09:26;;;;;;;3.83;3.53;;;;;;;;;;5014442;28;20257;-83
2023/02/21 16:11:58;;;;;;;4.97;4.55;;;;;;;;;;5014812;28;20243;-83
2023/02/21 16:14:35;;;;;;;4.85;4.35;;;;;;;;;;5014378;28;20211;-83
2023/02/21 16:17:20;;;;;;;4.72;4.10;;;;;;;;;;5016064;28;20199;-84
2023/02/21 16:19:52;;;;;;;3.78;3.25;;;;;;;;;;5015564;28;20934;-82
2023/02/21 16:22:40;;;;;;;4.40;4.00;;;;;;;;;;5015855;28;20230;-84
2023/02/21 16:25:16;;;;;;;3.80;3.17;;;;;;;;;;5016659;28;20241;-83
2023/02/21 16:27:46;;;;;;;4.38;3.97;;;;;;;;;;5016091;28;20207;-84
2023/02/21 16:30:16;;;;;;;5.38;4.88;;;;;;;;;;5016873;28;20209;-83
2023/02/21 16:32:46;;;;;;;4.32;3.83;;;;;;;;;;5016374;28;20250;-83
2023/02/21 16:35:19;;;;;;;4.80;4.35;;;;;;;;;;5016506;28;20291;-82
2023/02/21 16:37:49;;;;;;;3.90;3.60;;;;;;;;;;5018285;28;20249;-83
2023/02/21 16:40:21;;;;;;;3.58;3.28;;;;;;;;;;5017038;28;20298;-83
2023/02/21 16:42:48;;;;;;;3.78;3.47;;;;;;;;;;5015910;28;20222;-83
2023/02/21 16:45:16;;;;;;;7.40;3.92;;;;;;;;;;5027403;28;20234;-83
2023/02/21 16:47:47;;;;;;;4.40;4.00;;;;;;;;;;5036293;28;20663;-83
2023/02/21 16:50:18;;;;;;;3.58;3.25;;;;;;;;;;5035540;28;20288;-83
2023/02/21 16:52:47;;;;;;;4.72;4.07;;;;;;;;;;5029356;28;20242;-83
2023/02/21 16:55:17;;;;;;;4.32;3.83;;;;;;;;;;5015424;28;20207;-83
2023/02/21 16:57:48;;;;;;;4.45;4.05;;;;;;;;;;5013423;28;20203;-84
2023/02/21 17:00:20;;;;;;;3.75;3.45;;;;;;;;;;5013053;28;20298;-83
2023/02/21 17:02:47;;;;;;;4.53;3.75;;;;;;;;;;5013778;28;20231;-83
2023/02/21 17:05:15;;;;;;;4.85;3.40;;;;;;;;;;5013626;28;20227;-83
2023/02/21 17:07:43;;;;;;;3.72;3.42;;;;;;;;;;5013949;28;20321;-83
2023/02/21 17:10:13;;;;;;;4.03;3.63;;;;;;;;;;5012404;28;20262;-83
2023/02/21 17:12:40;;;;;;;4.25;3.85;;;;;;;;;;5013293;28;20659;-83
2023/02/21 17:15:09;;;;;;;5.13;4.65;;;;;;;;;;5024665;28;20292;-83
2023/02/21 17:17:37;;;;;;;4.40;3.97;;;;;;;;;;5033686;28;20202;-83
2023/02/21 17:20:06;;;;;;;4.72;3.83;;;;;;;;;;5032138;28;20309;-83
2023/02/21 17:22:35;;;;;;;4.82;3.95;;;;;;;;;;5028351;28;20250;-83
2023/02/21 17:25:02;;;;;;;5.57;4.63;;;;;;;;;;5013027;28;20286;-83
2023/02/21 17:27:31;;;;;;;4.78;4.28;;;;;;;;;;5012727;28;20310;-83
2023/02/21 17:29:58;;;;;;;6.03;4.85;;;;;;;;;;5012439;28;20289;-83
2023/02/21 17:32:26;;;;;;;5.55;4.85;;;;;;;;;;5011852;28;20317;-83
2023/02/21 17:34:54;;;;;;;5.10;4.47;;;;;;;;;;5015434;28;20203;-83
2023/02/21 17:37:21;;;;;;;4.68;4.20;;;;;;;;;;5015938;28;20290;-83
2023/02/21 17:39:56;;;;;;;6.15;5.43;;;;;;;;;;5015994;28;20222;-84